Time;durP1;ratioP1;P1;durP2;ratioP2;P2;SDS_P1;SDS_P2;PMS_P1;PMS_P2;Temp;Humidity;BMP_temperature;BMP_pressure;BME280_temperature;BME280_humidity;BME280_pressure;Samples;Min_cycle;Max_cycle;Signal;HPM_P1;HPM_P2
2022/03/31 00:00:09;;;;;;;27.98;24.13;;;;;;;6.20;100.00;94056.16;4957647;29;24421;-75
2022/03/31 00:02:36;;;;;;;28.83;24.50;;;;;;;6.10;100.00;94052.63;4958222;28;24461;-75
2022/03/31 00:05:04;;;;;;;25.70;23.25;;;;;;;6.25;100.00;94049.75;4957798;29;24418;-75
2022/03/31 00:07:30;;;;;;;27.90;23.77;;;;;;;6.20;100.00;94046.72;4958423;29;24425;-75
2022/03/31 00:09:57;;;;;;;26.02;23.25;;;;;;;6.15;100.00;94051.34;4958222;29;24423;-75
2022/03/31 00:12:23;;;;;;;28.13;24.60;;;;;;;6.19;100.00;94039.94;4957917;28;24431;-74
2022/03/31 00:14:49;;;;;;;28.70;24.05;;;;;;;6.12;100.00;94046.44;4957447;29;24873;-75
2022/03/31 00:17:16;;;;;;;26.13;23.02;;;;;;;6.10;100.00;94037.19;4956332;29;24848;-75
2022/03/31 00:19:42;;;;;;;27.50;24.10;;;;;;;6.21;100.00;94035.47;4956394;29;24521;-75
2022/03/31 00:22:10;;;;;;;26.75;24.08;;;;;;;6.13;100.00;94024.94;4955895;28;24454;-75
2022/03/31 00:24:37;;;;;;;27.40;23.10;;;;;;;6.12;100.00;94033.59;4956162;29;24429;-75
2022/03/31 00:27:04;;;;;;;29.35;24.42;;;;;;;6.42;100.00;94033.09;4956733;29;24437;-75
2022/03/31 00:29:31;;;;;;;26.42;23.35;;;;;;;6.36;100.00;94030.97;4956094;29;24430;-75
2022/03/31 00:31:57;;;;;;;26.52;23.90;;;;;;;6.28;100.00;94030.72;4956150;28;24433;-75
2022/03/31 00:34:24;;;;;;;27.05;24.10;;;;;;;6.20;100.00;94030.47;4956220;29;24563;-74
2022/03/31 00:36:50;;;;;;;25.00;22.08;;;;;;;6.59;100.00;94025.84;4955667;29;24425;-75
2022/03/31 00:39:32;;;;;;;27.00;22.65;;;;;;;6.55;100.00;94017.56;4955913;29;24433;-75
2022/03/31 00:41:59;;;;;;;25.98;23.33;;;;;;;6.35;100.00;94020.81;4955661;28;25085;-74
2022/03/31 00:44:25;;;;;;;24.52;22.02;;;;;;;6.27;100.00;94011.09;4956391;28;24457;-75
2022/03/31 00:46:54;;;;;;;24.17;21.70;;;;;;;6.22;100.00;94010.59;4956355;29;24429;-75
2022/03/31 00:49:21;;;;;;;29.80;22.93;;;;;;;6.18;100.00;94004.03;4956933;29;24471;-73
2022/03/31 00:51:48;;;;;;;26.67;22.40;;;;;;;6.02;100.00;94009.50;4954802;28;24424;-75
2022/03/31 00:54:16;;;;;;;25.45;22.75;;;;;;;5.98;100.00;94016.59;4955054;29;24422;-74
2022/03/31 00:56:45;;;;;;;25.80;23.02;;;;;;;5.93;100.00;94008.44;4955030;29;24414;-74
2022/03/31 00:59:12;;;;;;;27.40;23.38;;;;;;;5.93;100.00;94007.56;4953421;28;24425;-74
2022/03/31 01:01:39;;;;;;;24.27;21.57;;;;;;;5.95;100.00;94011.69;4954596;28;24454;-75
2022/03/31 01:04:07;;;;;;;26.15;22.55;;;;;;;5.99;100.00;94007.16;4954182;29;24848;-75
2022/03/31 01:06:34;;;;;;;23.90;21.52;;;;;;;6.02;100.00;94001.78;4954385;29;24836;-74
2022/03/31 01:09:01;;;;;;;24.08;21.55;;;;;;;6.06;100.00;94003.19;4954322;29;24433;-75
2022/03/31 01:11:29;;;;;;;30.23;23.25;;;;;;;6.02;100.00;93997.47;4954117;29;24418;-75
2022/03/31 01:13:58;;;;;;;29.10;22.35;;;;;;;6.06;100.00;93998.88;4954410;28;24531;-75
2022/03/31 01:16:25;;;;;;;27.50;22.48;;;;;;;6.09;100.00;93997.03;4954545;29;24430;-75
2022/03/31 01:18:52;;;;;;;23.23;20.73;;;;;;;6.04;100.00;93993.03;4954357;29;24429;-75
2022/03/31 01:21:19;;;;;;;23.42;20.95;;;;;;;6.02;100.00;93996.66;4953804;29;24449;-75
2022/03/31 01:23:48;;;;;;;24.60;21.95;;;;;;;6.16;100.00;93991.31;4952013;28;21256;-75
2022/03/31 01:26:15;;;;;;;24.77;22.20;;;;;;;6.11;100.00;94000.28;4953123;29;24437;-75
2022/03/31 01:28:43;;;;;;;24.05;21.45;;;;;;;6.06;100.00;93987.78;4953547;29;24888;-75
2022/03/31 01:31:11;;;;;;;24.85;22.35;;;;;;;6.02;100.00;93984.63;4953203;29;24422;-74
2022/03/31 01:33:38;;;;;;;26.20;23.08;;;;;;;6.00;100.00;93983.88;4955988;29;24426;-74
2022/03/31 01:36:07;;;;;;;27.27;22.57;;;;;;;6.06;100.00;93983.44;4955929;29;25019;-75
2022/03/31 01:38:34;;;;;;;23.02;20.73;;;;;;;6.02;100.00;93979.47;4956373;29;24441;-75
2022/03/31 01:41:02;;;;;;;25.23;22.60;;;;;;;5.86;100.00;93976.38;4956127;29;24418;-75
2022/03/31 01:43:28;;;;;;;25.65;22.98;;;;;;;5.86;100.00;93976.38;4954104;28;24788;-75
2022/03/31 01:45:56;;;;;;;22.85;20.48;;;;;;;5.89;100.00;93970.16;4953321;29;24453;-75
2022/03/31 01:48:23;;;;;;;23.00;20.63;;;;;;;5.93;100.00;93962.19;4953903;29;24436;-75
2022/03/31 01:50:50;;;;;;;28.88;23.23;;;;;;;5.97;100.00;93957.59;4954704;29;24433;-75
2022/03/31 01:53:18;;;;;;;24.75;22.17;;;;;;;6.16;100.00;93952.75;4955035;28;24719;-75
2022/03/31 01:55:45;;;;;;;23.55;21.15;;;;;;;6.29;100.00;93953.47;4955777;29;24461;-75
2022/03/31 01:58:13;;;;;;;22.77;20.23;;;;;;;6.34;100.00;93947.16;4956962;29;24430;-75
2022/03/31 02:00:39;;;;;;;26.58;22.17;;;;;;;6.35;100.00;93939.34;4956668;29;24442;-75
2022/03/31 02:03:06;;;;;;;26.50;22.50;;;;;;;6.49;100.00;93931.41;4955700;28;24864;-75
2022/03/31 02:05:32;;;;;;;25.58;22.40;;;;;;;6.44;100.00;93933.50;4955774;29;24418;-74
2022/03/31 02:07:59;;;;;;;26.98;23.92;;;;;;;6.19;100.00;93931.97;4954456;29;24430;-75
2022/03/31 02:10:26;;;;;;;25.05;22.50;;;;;;;5.99;100.00;93927.47;4955712;28;24437;-75
2022/03/31 02:12:53;;;;;;;23.43;20.90;;;;;;;5.95;100.00;93932.03;4958695;28;24538;-74
2022/03/31 02:15:21;;;;;;;24.63;21.80;;;;;;;5.93;100.00;93926.22;4958012;29;24457;-75
2022/03/31 02:17:48;;;;;;;24.67;22.23;;;;;;;5.85;100.00;93927.66;4958336;29;24962;-75
2022/03/31 02:20:15;;;;;;;27.70;24.17;;;;;;;5.87;100.00;93915.53;4957667;29;24510;-75
2022/03/31 02:22:42;;;;;;;24.77;22.13;;;;;;;5.85;100.00;93919.94;4957869;28;24465;-75
2022/03/31 02:25:11;;;;;;;24.23;21.65;;;;;;;5.80;100.00;93918.53;4957825;29;24789;-75
2022/03/31 02:27:37;;;;;;;27.75;21.40;;;;;;;5.85;100.00;93923.31;4957179;29;24956;-75
2022/03/31 02:30:05;;;;;;;23.35;20.92;;;;;;;5.85;100.00;93912.22;4957431;29;24430;-75
2022/03/31 02:32:33;;;;;;;25.33;22.63;;;;;;;6.00;100.00;93914.50;4957224;28;24426;-75
2022/03/31 02:34:59;;;;;;;23.55;21.20;;;;;;;5.94;100.00;93914.97;4957436;29;24424;-74
2022/03/31 02:37:26;;;;;;;22.73;20.37;;;;;;;5.89;100.00;93916.22;4956954;29;24425;-75
2022/03/31 02:39:52;;;;;;;23.00;20.43;;;;;;;5.90;100.00;93905.03;4957823;29;24441;-75
2022/03/31 02:42:19;;;;;;;23.90;20.20;;;;;;;5.91;100.00;93904.09;4959285;28;24458;-75
2022/03/31 02:44:46;;;;;;;22.55;20.08;;;;;;;5.90;100.00;93902.47;4960335;29;24462;-75
2022/03/31 02:47:12;;;;;;;22.50;20.20;;;;;;;5.90;100.00;93895.56;4958173;29;24422;-75
2022/03/31 02:49:40;;;;;;;24.05;21.30;;;;;;;5.91;100.00;93896.38;4955954;29;24940;-75
2022/03/31 02:52:08;;;;;;;24.60;21.35;;;;;;;5.92;100.00;93895.44;4955866;28;24471;-75
2022/03/31 02:57:19;;;;;;;32.90;25.90;;;;;;;5.81;100.00;93889.34;4957859;29;25124;-75
2022/03/31 02:59:45;;;;;;;30.25;24.23;;;;;;;5.85;100.00;93887.34;4957304;29;24852;-75
2022/03/31 03:02:13;;;;;;;33.28;24.65;;;;;;;5.85;100.00;93886.53;4958779;28;24501;-75
2022/03/31 03:04:41;;;;;;;33.53;24.50;;;;;;;5.96;100.00;93876.31;4959046;29;24521;-75
2022/03/31 03:07:07;;;;;;;32.67;25.30;;;;;;;5.99;100.00;93882.03;4958223;29;24422;-76
2022/03/31 03:09:34;;;;;;;29.35;24.42;;;;;;;5.95;100.00;93879.81;4959138;29;24450;-75
2022/03/31 03:12:00;;;;;;;30.02;24.98;;;;;;;5.91;100.00;93879.22;4956797;28;24469;-74
2022/03/31 03:14:26;;;;;;;31.38;24.25;;;;;;;5.88;100.00;93873.47;4956937;29;24441;-76
2022/03/31 03:16:54;;;;;;;30.25;25.10;;;;;;;5.89;100.00;93877.69;4957167;29;24433;-75
2022/03/31 03:19:20;;;;;;;30.13;25.08;;;;;;;5.91;100.00;93868.94;4957427;29;24454;-75
2022/03/31 03:21:48;;;;;;;31.60;23.80;;;;;;;6.03;100.00;93878.31;4953989;28;24501;-75
2022/03/31 03:24:15;;;;;;;26.95;23.83;;;;;;;6.22;100.00;93876.91;4950747;29;24446;-74
2022/03/31 03:26:41;;;;;;;25.70;22.88;;;;;;;6.14;100.00;93869.78;4958504;29;24501;-75
2022/03/31 03:29:08;;;;;;;24.92;22.20;;;;;;;6.04;100.00;93867.13;4957133;29;24509;-75
2022/03/31 03:31:34;;;;;;;26.70;23.90;;;;;;;6.47;100.00;93871.53;4957555;29;24485;-76
2022/03/31 03:34:01;;;;;;;29.50;23.73;;;;;;;6.78;100.00;93864.00;4958127;29;24422;-75
2022/03/31 03:36:27;;;;;;;26.93;23.80;;;;;;;6.62;100.00;93858.44;4959002;29;24436;-75
2022/03/31 03:38:55;;;;;;;28.17;23.45;;;;;;;6.19;100.00;93860.00;4960042;29;24441;-76
2022/03/31 03:41:22;;;;;;;29.30;24.50;;;;;;;6.05;100.00;93861.03;4959530;29;24430;-75
2022/03/31 03:43:48;;;;;;;25.15;22.48;;;;;;;5.97;100.00;93857.38;4958807;28;24458;-75
2022/03/31 03:46:15;;;;;;;25.23;22.05;;;;;;;5.82;100.00;93859.31;4960052;29;24433;-76
2022/03/31 03:48:41;;;;;;;24.40;21.73;;;;;;;5.82;100.00;93855.03;4960286;29;24449;-75
2022/03/31 03:51:09;;;;;;;26.13;22.60;;;;;;;5.78;100.00;93860.50;4958899;29;24607;-76
2022/03/31 03:53:35;;;;;;;25.85;23.25;;;;;;;5.74;100.00;93861.66;4957529;28;24589;-75
2022/03/31 03:56:04;;;;;;;24.63;22.03;;;;;;;5.75;100.00;93853.03;4957560;29;24936;-76
2022/03/31 03:58:30;;;;;;;26.40;22.70;;;;;;;5.72;100.00;93860.97;4957258;29;24476;-76
2022/03/31 04:00:57;;;;;;;28.73;23.13;;;;;;;5.69;100.00;93863.75;4956840;29;24420;-76
2022/03/31 04:03:23;;;;;;;28.83;23.63;;;;;;;5.53;100.00;93849.47;4956694;28;24453;-76
2022/03/31 04:05:50;;;;;;;25.58;21.67;;;;;;;5.53;100.00;93846.91;4955918;29;24426;-75
2022/03/31 04:08:17;;;;;;;27.52;23.45;;;;;;;5.54;100.00;93851.09;4956902;29;24964;-76
2022/03/31 04:10:44;;;;;;;25.17;21.40;;;;;;;5.64;100.00;93848.69;4956442;29;24441;-74
2022/03/31 04:13:12;;;;;;;25.50;22.67;;;;;;;5.87;100.00;93859.00;4957708;28;24832;-75
2022/03/31 04:15:39;;;;;;;27.40;23.65;;;;;;;5.97;100.00;93852.25;4960706;29;24462;-76
2022/03/31 04:18:07;;;;;;;27.42;24.52;;;;;;;6.24;100.00;93849.34;4960495;29;24429;-75
2022/03/31 04:20:34;;;;;;;28.40;25.20;;;;;;;6.30;100.00;93847.16;4959354;29;25174;-76
2022/03/31 04:23:01;;;;;;;30.15;26.90;;;;;;;5.88;100.00;93846.03;4960031;28;24505;-75
2022/03/31 04:25:27;;;;;;;27.02;24.17;;;;;;;5.67;100.00;93847.63;4959173;29;24430;-75
2022/03/31 04:27:54;;;;;;;26.83;22.87;;;;;;;5.79;100.00;93847.56;4958834;29;24454;-75
2022/03/31 04:30:22;;;;;;;30.08;24.65;;;;;;;6.09;100.00;93845.41;4959870;29;24434;-75
2022/03/31 04:32:49;;;;;;;29.13;25.40;;;;;;;5.90;100.00;93838.22;4959357;28;24414;-75
2022/03/31 04:35:16;;;;;;;30.27;24.65;;;;;;;5.77;100.00;93835.75;4959613;29;24422;-75
2022/03/31 04:37:43;;;;;;;28.48;25.48;;;;;;;5.75;100.00;93832.50;4958872;29;24944;-74
2022/03/31 04:40:10;;;;;;;27.50;24.48;;;;;;;5.67;100.00;93834.78;4959172;29;24457;-75
2022/03/31 04:42:37;;;;;;;30.25;26.80;;;;;;;5.43;100.00;93833.13;4954602;28;24815;-74
2022/03/31 04:45:05;;;;;;;31.50;25.13;;;;;;;5.68;100.00;93832.13;4953537;29;24429;-74
2022/03/31 04:47:33;;;;;;;30.95;25.70;;;;;;;5.70;100.00;93824.28;4953495;29;24448;-74
2022/03/31 04:50:00;;;;;;;31.02;24.77;;;;;;;5.70;100.00;93829.44;4956995;29;24422;-75
2022/03/31 04:52:26;;;;;;;26.23;23.55;;;;;;;5.73;100.00;93831.78;4956720;28;24438;-75
2022/03/31 04:54:53;;;;;;;27.92;24.50;;;;;;;5.67;100.00;93825.31;4955904;29;24421;-75
2022/03/31 04:57:20;;;;;;;28.95;25.15;;;;;;;5.55;100.00;93831.38;4955177;29;24433;-75
2022/03/31 04:59:46;;;;;;;29.88;24.90;;;;;;;5.58;100.00;93831.97;4954956;29;25027;-75
2022/03/31 05:02:13;;;;;;;27.10;24.30;;;;;;;5.46;100.00;93829.50;4956093;28;24959;-75
2022/03/31 05:04:41;;;;;;;28.88;25.50;;;;;;;5.53;100.00;93833.25;4956133;29;24425;-75
2022/03/31 05:07:08;;;;;;;29.88;23.98;;;;;;;5.32;100.00;93835.66;4956533;29;24422;-75
2022/03/31 05:09:35;;;;;;;30.50;24.65;;;;;;;5.43;100.00;93833.13;4957137;29;24433;-75
2022/03/31 05:12:01;;;;;;;28.37;25.30;;;;;;;5.45;100.00;93833.00;4957072;28;24426;-75
2022/03/31 05:14:28;;;;;;;26.70;23.57;;;;;;;5.42;100.00;93835.81;4956609;29;24437;-75
2022/03/31 05:16:54;;;;;;;27.50;24.65;;;;;;;5.37;100.00;93836.13;4956492;29;24449;-75
2022/03/31 05:19:21;;;;;;;25.80;23.15;;;;;;;5.25;100.00;93842.16;4956579;29;24974;-75
2022/03/31 05:21:48;;;;;;;28.60;25.02;;;;;;;5.39;100.00;93836.84;4952914;29;24463;-75
2022/03/31 05:24:15;;;;;;;26.77;24.20;;;;;;;5.33;100.00;93839.84;4954036;29;24886;-75
2022/03/31 05:26:41;;;;;;;25.42;22.77;;;;;;;5.39;100.00;93839.41;4956784;29;24426;-75
2022/03/31 05:29:08;;;;;;;25.50;22.80;;;;;;;5.23;100.00;93844.03;4956881;29;24434;-74
2022/03/31 05:31:35;;;;;;;24.85;22.33;;;;;;;5.17;100.00;93837.59;4956378;29;24445;-75
2022/03/31 05:34:01;;;;;;;24.00;21.67;;;;;;;4.95;100.00;93837.50;4957364;29;24453;-75
2022/03/31 05:36:28;;;;;;;25.98;23.27;;;;;;;5.12;100.00;93842.25;4956831;29;24500;-75
2022/03/31 05:38:56;;;;;;;25.23;22.65;;;;;;;5.13;100.00;93840.50;4956980;29;24770;-75
2022/03/31 05:41:22;;;;;;;25.47;22.93;;;;;;;5.25;100.00;93834.47;4956936;29;24508;-74
2022/03/31 05:43:49;;;;;;;25.10;22.20;;;;;;;5.17;100.00;93834.19;4955916;28;24458;-75
2022/03/31 05:46:15;;;;;;;24.10;21.65;;;;;;;4.92;100.00;93837.69;4959150;28;24421;-75
2022/03/31 05:48:42;;;;;;;24.20;21.80;;;;;;;4.82;100.00;93833.25;4960108;29;24426;-76
2022/03/31 05:51:08;;;;;;;24.70;21.63;;;;;;;4.75;100.00;93832.03;4959210;29;24426;-75
2022/03/31 05:53:35;;;;;;;24.95;22.33;;;;;;;4.81;100.00;93829.03;4958688;28;24449;-74
2022/03/31 05:56:03;;;;;;;24.48;21.73;;;;;;;4.82;100.00;93822.13;4958497;29;24433;-74
2022/03/31 05:58:29;;;;;;;25.58;23.08;;;;;;;4.88;100.00;93823.47;4957888;29;24433;-75
2022/03/31 06:00:56;;;;;;;24.15;21.65;;;;;;;4.92;100.00;93825.69;4956172;29;24425;-75
2022/03/31 06:03:23;;;;;;;22.95;20.85;;;;;;;4.88;100.00;93821.72;4957482;28;24461;-75
2022/03/31 06:05:50;;;;;;;23.30;21.05;;;;;;;4.81;100.00;93817.94;4959282;29;24995;-75
2022/03/31 06:08:17;;;;;;;23.40;21.17;;;;;;;4.83;100.00;93822.06;4959866;29;24446;-75
2022/03/31 06:10:43;;;;;;;23.48;21.15;;;;;;;4.74;100.00;93811.63;4959015;29;24461;-75
2022/03/31 06:13:12;;;;;;;23.10;20.80;;;;;;;4.68;100.00;93824.91;4959523;29;24414;-75
2022/03/31 06:15:38;;;;;;;24.33;21.92;;;;;;;4.73;100.00;93817.69;4960063;29;24456;-76
2022/03/31 06:18:06;;;;;;;24.37;22.07;;;;;;;4.76;100.00;93820.03;4960310;29;24431;-75
2022/03/31 06:20:34;;;;;;;23.67;21.23;;;;;;;4.80;100.00;93826.59;4959437;29;24492;-75
2022/03/31 06:23:00;;;;;;;24.40;21.95;;;;;;;4.98;100.00;93832.16;4959645;29;24465;-76
2022/03/31 06:25:27;;;;;;;22.65;20.45;;;;;;;5.15;100.00;93826.59;4959611;29;24998;-75
2022/03/31 06:27:54;;;;;;;23.50;21.20;;;;;;;5.20;100.00;93831.41;4960250;29;24429;-75
2022/03/31 06:30:22;;;;;;;22.67;20.38;;;;;;;5.19;100.00;93828.03;4960009;29;24426;-75
2022/03/31 06:32:49;;;;;;;27.77;22.38;;;;;;;5.19;100.00;93828.03;4960116;29;24430;-75
2022/03/31 06:35:16;;;;;;;23.73;21.42;;;;;;;5.02;100.00;93826.69;4960765;29;24426;-76
2022/03/31 06:37:43;;;;;;;28.63;24.38;;;;;;;5.00;100.00;93833.66;4960082;29;24430;-75
2022/03/31 06:40:12;;;;;;;26.03;23.43;;;;;;;4.88;100.00;93831.16;4959648;29;24425;-75
2022/03/31 06:42:39;;;;;;;28.88;26.00;;;;;;;4.85;100.00;93839.88;4959640;29;24434;-75
2022/03/31 06:45:08;;;;;;;27.40;24.70;;;;;;;4.95;100.00;93832.38;4960142;29;24469;-75
2022/03/31 06:47:36;;;;;;;31.02;24.77;;;;;;;4.84;100.00;93826.25;4959913;29;24529;-75
2022/03/31 06:50:04;;;;;;;26.20;23.50;;;;;;;4.82;100.00;93827.28;4959371;29;24481;-75
2022/03/31 06:52:30;;;;;;;27.85;24.48;;;;;;;4.69;100.00;93835.03;4959811;28;24442;-75
2022/03/31 06:54:57;;;;;;;27.38;22.77;;;;;;;4.76;100.00;93836.25;4959295;29;24469;-75
2022/03/31 06:57:23;;;;;;;24.88;22.48;;;;;;;4.53;100.00;93848.13;4957599;28;24421;-75
2022/03/31 06:59:49;;;;;;;23.88;21.42;;;;;;;4.73;100.00;93846.72;4959525;29;24971;-76
2022/03/31 07:02:16;;;;;;;24.20;21.90;;;;;;;4.56;100.00;93840.22;4959980;29;24801;-75
2022/03/31 07:04:44;;;;;;;26.80;24.08;;;;;;;4.44;100.00;93842.81;4959754;29;24446;-74
2022/03/31 07:07:11;;;;;;;23.52;21.17;;;;;;;4.43;100.00;93836.03;4959725;29;24418;-75
2022/03/31 07:09:37;;;;;;;24.35;22.02;;;;;;;4.53;100.00;93840.44;4959433;29;24433;-75
2022/03/31 07:12:04;;;;;;;22.85;20.08;;;;;;;4.56;100.00;93836.81;4958703;29;24441;-75
2022/03/31 07:14:33;;;;;;;22.30;20.02;;;;;;;4.57;100.00;93834.16;4959009;29;24432;-75
2022/03/31 07:17:00;;;;;;;26.98;20.67;;;;;;;4.73;100.00;93823.63;4958929;29;25084;-75
2022/03/31 07:19:26;;;;;;;23.35;20.90;;;;;;;4.82;100.00;93822.13;4959142;29;24903;-75
2022/03/31 07:21:55;;;;;;;24.23;21.15;;;;;;;4.73;100.00;93825.38;4958141;29;24517;-75
2022/03/31 07:24:21;;;;;;;24.67;22.08;;;;;;;4.80;100.00;93824.84;4958417;29;25081;-75
2022/03/31 07:26:47;;;;;;;26.52;22.88;;;;;;;4.63;100.00;93832.06;4957903;29;25006;-75
2022/03/31 07:29:14;;;;;;;23.42;20.67;;;;;;;4.66;100.00;93826.72;4959355;29;24429;-75
2022/03/31 07:31:40;;;;;;;24.13;20.75;;;;;;;4.55;100.00;93825.75;4958412;29;24804;-75
2022/03/31 07:34:07;;;;;;;23.33;20.92;;;;;;;4.56;100.00;93821.44;4958127;29;24418;-75
2022/03/31 07:36:33;;;;;;;22.95;20.77;;;;;;;4.69;100.00;93811.94;4958124;29;24979;-75
2022/03/31 07:39:01;;;;;;;21.88;19.77;;;;;;;4.58;100.00;93815.28;4958605;29;24480;-74
2022/03/31 07:41:28;;;;;;;22.13;19.92;;;;;;;4.75;100.00;93815.84;4958464;29;24462;-75
2022/03/31 07:43:54;;;;;;;21.95;19.85;;;;;;;4.71;100.00;93812.69;4956008;29;24992;-74
2022/03/31 07:46:21;;;;;;;23.40;21.00;;;;;;;4.89;100.00;93810.53;4953882;29;24434;-74
2022/03/31 07:48:47;;;;;;;22.83;20.43;;;;;;;4.83;100.00;93808.41;4953930;29;24479;-74
2022/03/31 07:51:14;;;;;;;23.17;20.27;;;;;;;4.81;100.00;93811.06;4953617;29;24605;-74
2022/03/31 07:53:40;;;;;;;21.92;19.85;;;;;;;4.76;100.00;93810.59;4953466;29;24844;-74
2022/03/31 07:56:08;;;;;;;22.95;20.52;;;;;;;4.83;100.00;93818.66;4953797;29;24426;-75
2022/03/31 07:58:36;;;;;;;23.20;20.80;;;;;;;4.78;100.00;93818.16;4953619;29;24948;-74
2022/03/31 08:01:03;;;;;;;23.95;21.52;;;;;;;4.85;100.00;93809.09;4953061;29;24456;-74
2022/03/31 08:03:30;;;;;;;25.30;22.77;;;;;;;4.92;100.00;93812.88;4953373;28;24450;-74
2022/03/31 08:05:56;;;;;;;22.92;20.48;;;;;;;4.91;100.00;93815.56;4953229;29;24418;-74
2022/03/31 08:08:23;;;;;;;24.85;21.98;;;;;;;5.21;100.00;93805.63;4953023;28;24426;-74
2022/03/31 08:10:50;;;;;;;24.30;22.02;;;;;;;5.29;100.00;93805.88;4953558;29;24825;-74
2022/03/31 08:13:25;;;;;;;22.90;20.48;;;;;;;5.23;100.00;93797.84;4953594;28;24522;-72
2022/03/31 08:15:53;;;;;;;25.95;23.25;;;;;;;5.49;100.00;93806.19;4953039;29;24586;-71
2022/03/31 08:18:19;;;;;;;26.38;23.23;;;;;;;5.46;100.00;93799.50;4953365;29;24521;-71
2022/03/31 08:20:46;;;;;;;27.25;24.42;;;;;;;5.17;100.00;93800.84;4953058;29;24438;-71
2022/03/31 08:23:13;;;;;;;25.67;23.02;;;;;;;5.17;100.00;93805.97;4952675;28;25196;-70
2022/03/31 08:25:41;;;;;;;25.33;22.83;;;;;;;5.14;100.00;93803.63;4953209;29;24441;-74
2022/03/31 08:28:07;;;;;;;26.30;23.65;;;;;;;5.06;100.00;93805.00;4953075;29;25039;-74
2022/03/31 08:30:35;;;;;;;27.17;22.58;;;;;;;5.09;100.00;93791.13;4952582;29;24998;-74
2022/03/31 08:33:02;;;;;;;25.47;22.97;;;;;;;5.46;100.00;93796.13;4953118;28;24436;-74
2022/03/31 08:35:29;;;;;;;25.95;23.27;;;;;;;5.53;100.00;93794.75;4952915;29;24418;-73
2022/03/31 08:37:56;;;;;;;24.50;22.02;;;;;;;5.36;100.00;93795.97;4953437;29;24433;-74
2022/03/31 08:40:22;;;;;;;27.30;24.38;;;;;;;5.29;100.00;93799.94;4953059;29;24433;-73
2022/03/31 08:42:49;;;;;;;25.80;23.00;;;;;;;5.21;100.00;93794.56;4953013;28;24442;-73
2022/03/31 08:45:17;;;;;;;26.77;24.17;;;;;;;5.23;100.00;93795.28;4953050;29;24523;-74
2022/03/31 08:47:48;;;;;;;25.60;21.92;;;;;;;5.39;100.00;93793.19;4953018;29;24434;-74
2022/03/31 08:50:15;;;;;;;28.90;25.05;;;;;;;5.45;100.00;93790.19;4953206;29;24804;-74
2022/03/31 08:52:42;;;;;;;27.88;23.33;;;;;;;5.36;100.00;93788.28;4996065;23;24471;-78
2022/03/31 08:55:12;;;;;;;31.60;25.23;;;;;;;5.82;100.00;93787.41;5014575;28;24424;-78
2022/03/31 08:57:44;;;;;;;36.83;27.10;;;;;;;5.69;100.00;93779.81;5014488;28;24436;-78
2022/03/31 09:00:12;;;;;;;28.83;25.33;;;;;;;5.56;100.00;93779.94;5015491;28;24933;-78
2022/03/31 09:02:39;;;;;;;29.05;25.15;;;;;;;5.62;100.00;93785.53;5014986;28;24500;-78
2022/03/31 09:05:10;;;;;;;29.33;26.10;;;;;;;5.74;100.00;93785.41;5015028;28;24451;-78
2022/03/31 09:07:37;;;;;;;37.38;29.30;;;;;;;6.07;100.00;93783.81;5015073;28;24448;-78
2022/03/31 09:10:04;;;;;;;30.65;27.13;;;;;;;5.93;100.00;93784.03;5014898;28;24853;-79
2022/03/31 09:12:38;;;;;;;32.93;27.33;;;;;;;5.73;100.00;93786.34;5016034;28;25121;-78
2022/03/31 09:15:09;;;;;;;29.30;25.75;;;;;;;5.69;100.00;93782.38;5013892;28;24439;-78
2022/03/31 09:17:36;;;;;;;36.60;28.30;;;;;;;6.00;100.00;93777.50;5014191;28;24467;-78
2022/03/31 09:20:03;;;;;;;34.65;28.23;;;;;;;5.84;100.00;93785.53;5014130;28;24475;-78
2022/03/31 09:22:43;;;;;;;36.92;28.35;;;;;;;5.75;100.00;93776.78;5018687;28;24425;-78
2022/03/31 09:25:10;;;;;;;35.67;26.98;;;;;;;5.79;100.00;93783.34;5016835;28;24452;-78
2022/03/31 09:27:37;;;;;;;36.88;28.45;;;;;;;5.93;100.00;93778.91;5018177;28;24428;-78
2022/03/31 09:30:08;;;;;;;34.45;29.77;;;;;;;6.05;100.00;93778.00;5017744;28;24474;-78
2022/03/31 09:32:34;;;;;;;36.47;27.85;;;;;;;6.04;100.00;93781.47;5018819;28;24424;-78
2022/03/31 09:35:07;;;;;;;36.95;29.27;;;;;;;6.02;100.00;93775.66;5017899;28;24516;-78
2022/03/31 09:37:35;;;;;;;38.65;28.75;;;;;;;6.57;100.00;93773.13;5018287;28;24423;-78
2022/03/31 09:40:02;;;;;;;34.28;29.50;;;;;;;6.36;100.00;93765.31;5018212;28;24506;-78
2022/03/31 09:42:29;;;;;;;38.45;29.45;;;;;;;6.11;100.00;93769.78;5018371;28;24801;-78
2022/03/31 09:44:59;;;;;;;37.28;29.55;;;;;;;6.21;100.00;93772.47;5017608;28;25001;-78
2022/03/31 09:47:26;;;;;;;35.60;30.17;;;;;;;6.06;100.00;93775.28;5018148;28;24810;-78
2022/03/31 09:49:54;;;;;;;36.47;27.83;;;;;;;6.06;100.00;93774.47;5017561;28;24505;-78
2022/03/31 09:52:21;;;;;;;38.10;29.48;;;;;;;6.01;100.00;93766.31;5018076;28;24436;-78
2022/03/31 09:54:50;;;;;;;38.88;29.40;;;;;;;6.13;100.00;93779.97;5019727;28;24428;-78
2022/03/31 09:57:21;;;;;;;32.90;28.13;;;;;;;6.09;100.00;93768.28;5018257;28;24436;-78
2022/03/31 09:59:51;;;;;;;36.63;28.30;;;;;;;6.21;100.00;93769.91;5017450;28;25116;-78
2022/03/31 10:02:19;;;;;;;36.45;26.98;;;;;;;6.16;100.00;93764.31;5017661;28;24809;-78
2022/03/31 10:04:47;;;;;;;35.85;28.58;;;;;;;6.12;100.00;93762.88;5017425;28;24822;-78
2022/03/31 10:07:14;;;;;;;31.93;28.37;;;;;;;5.99;100.00;93756.13;5017548;28;24494;-78
2022/03/31 10:09:43;;;;;;;33.17;27.98;;;;;;;5.90;100.00;93768.84;5017542;28;24524;-78
2022/03/31 10:12:18;;;;;;;37.38;30.10;;;;;;;5.85;100.00;93763.22;5017156;28;24435;-78
2022/03/31 10:14:51;;;;;;;35.78;27.48;;;;;;;5.84;100.00;93759.84;5017129;28;24424;-79
2022/03/31 10:17:18;;;;;;;33.05;26.67;;;;;;;6.12;100.00;93750.88;5016751;28;24423;-78
2022/03/31 10:19:46;;;;;;;31.65;27.95;;;;;;;6.63;100.00;93752.03;5017167;28;24435;-78
2022/03/31 10:24:41;;;;;;;32.30;28.40;;;;;;;6.52;100.00;93751.13;5017381;28;24464;-78
2022/03/31 10:25:03;;;;;;;34.13;28.33;;;;;;;6.40;100.00;93759.81;5017254;28;24455;-78
2022/03/31 10:27:33;;;;;;;32.25;26.88;;;;;;;6.37;100.00;93759.25;5014278;28;24429;-78
2022/03/31 10:30:11;;;;;;;31.90;26.48;;;;;;;6.42;100.00;93759.72;5012480;28;25078;-79
2022/03/31 10:32:38;;;;;;;33.33;27.33;;;;;;;6.25;100.00;93761.00;5018381;28;24439;-78
2022/03/31 10:35:05;;;;;;;37.23;28.97;;;;;;;6.20;100.00;93756.25;5017214;28;24457;-78
2022/03/31 10:37:34;;;;;;;35.08;29.23;;;;;;;6.12;100.00;93747.47;5012360;28;24487;-78
2022/03/31 10:40:03;;;;;;;33.55;27.38;;;;;;;6.26;100.00;93742.06;5017129;28;25005;-78
2022/03/31 10:42:31;;;;;;;35.78;29.10;;;;;;;6.19;100.00;93735.78;5018500;28;24439;-78
2022/03/31 10:45:06;;;;;;;36.17;28.30;;;;;;;6.31;100.00;93737.41;5018107;28;24806;-78
2022/03/31 10:47:34;;;;;;;34.63;27.48;;;;;;;6.43;100.00;93740.75;5018833;28;24452;-79
2022/03/31 10:50:01;;;;;;;34.55;28.25;;;;;;;6.40;100.00;93741.81;5017633;28;20779;-78
2022/03/31 10:52:28;;;;;;;33.85;29.15;;;;;;;6.24;100.00;93728.53;5016030;28;24995;-78
2022/03/31 10:55:06;;;;;;;35.97;27.83;;;;;;;6.42;100.00;93737.38;5009925;28;24775;-78
2022/03/31 10:57:41;;;;;;;33.55;27.60;;;;;;;6.48;100.00;93731.72;5006663;28;24491;-78
2022/03/31 11:00:10;;;;;;;40.95;29.88;;;;;;;6.64;100.00;93733.94;5006413;28;24428;-79
2022/03/31 11:02:41;;;;;;;36.88;29.70;;;;;;;6.82;100.00;93731.59;5015583;28;25079;-78
2022/03/31 11:05:08;;;;;;;47.28;30.52;;;;;;;7.15;100.00;93730.63;5015607;28;24447;-78
2022/03/31 11:07:35;;;;;;;37.87;30.77;;;;;;;7.01;100.00;93733.53;5015265;28;24419;-78
2022/03/31 11:10:02;;;;;;;41.87;29.90;;;;;;;6.70;100.00;93736.00;5014417;28;24500;-77
2022/03/31 11:12:29;;;;;;;39.80;31.03;;;;;;;6.81;100.00;93727.41;5013802;28;24461;-77
2022/03/31 11:15:00;;;;;;;43.45;29.75;;;;;;;7.26;100.00;93725.41;5012540;28;24425;-76
2022/03/31 11:17:27;;;;;;;34.47;30.27;;;;;;;7.09;100.00;93723.44;5012522;28;24515;-77
2022/03/31 11:19:55;;;;;;;38.72;30.40;;;;;;;7.45;100.00;93716.16;5003952;28;24541;-77